Time;durP1;ratioP1;P1;durP2;ratioP2;P2;SDS_P1;SDS_P2;PMS_P1;PMS_P2;Temp;Humidity;BMP_temperature;BMP_pressure;BME280_temperature;BME280_humidity;BME280_pressure;Samples;Min_cycle;Max_cycle;Signal;HPM_P1;HPM_P2
2021/12/19 00:10:48;;;;;;;8.47;5.30;;;6.90;99.90;;;7.79;100.00;-19991.94;5093913;28;20594;-62
2021/12/19 00:13:17;;;;;;;11.30;6.30;;;6.90;99.90;;;7.65;100.00;-19987.34;5094451;28;20291;-63
2021/12/19 00:15:45;;;;;;;8.03;5.37;;;6.90;99.90;;;7.76;100.00;-19990.91;5094115;28;20299;-61
2021/12/19 00:18:13;;;;;;;8.77;5.80;;;6.80;99.90;;;7.64;100.00;-19986.81;5079508;28;20292;-62
2021/12/19 00:20:41;;;;;;;9.20;5.90;;;6.80;99.90;;;7.71;100.00;-19989.38;5073661;28;20612;-62
2021/12/19 00:23:30;;;;;;;7.63;6.17;;;6.80;99.90;;;7.87;100.00;-19994.69;5073325;28;20566;-61
2021/12/19 00:25:58;;;;;;;11.57;6.53;;;6.90;99.90;;;7.96;100.00;-19997.75;5072659;28;20208;-63
2021/12/19 00:28:27;;;;;;;8.47;5.87;;;6.90;99.90;;;7.81;100.00;-19992.81;5073659;28;20298;-62
2021/12/19 00:30:56;;;;;;;7.37;5.83;;;6.90;99.90;;;7.66;100.00;-19987.66;5073291;28;20196;-63
2021/12/19 00:33:24;;;;;;;9.57;6.97;;;6.90;99.90;;;7.69;100.00;-19988.69;5073457;28;20757;-63
2021/12/19 00:35:52;;;;;;;9.47;7.17;;;6.90;99.90;;;7.87;100.00;-19994.84;5073436;28;20258;-63
2021/12/19 00:38:21;;;;;;;9.17;6.90;;;6.90;99.90;;;7.92;100.00;-19996.56;5073652;28;20244;-62
2021/12/19 00:40:49;;;;;;;11.30;7.20;;;7.00;99.90;;;7.87;100.00;-19994.69;5088131;28;20196;-62
2021/12/19 00:43:25;;;;;;;9.10;6.87;;;7.00;99.90;;;7.77;100.00;-19991.44;5093401;28;20243;-62
2021/12/19 00:45:54;;;;;;;9.10;6.30;;;7.00;99.90;;;7.85;100.00;-19994.00;5093393;28;20267;-62
2021/12/19 00:48:22;;;;;;;7.90;6.40;;;6.90;99.90;;;7.75;100.00;-19990.56;5093867;28;20294;-62
2021/12/19 00:50:50;;;;;;;8.97;6.13;;;6.90;99.90;;;7.84;100.00;-19993.66;5093432;28;20571;-62
2021/12/19 00:53:19;;;;;;;8.87;6.97;;;6.90;99.90;;;7.82;100.00;-19993.13;5093556;28;20307;-61
2021/12/19 00:55:47;;;;;;;9.50;6.13;;;6.90;99.90;;;7.96;100.00;-19997.94;5093309;28;20603;-62
2021/12/19 00:58:16;;;;;;;8.73;6.47;;;7.00;99.90;;;7.85;100.00;-19994.00;5093219;28;20204;-61
2021/12/19 01:00:45;;;;;;;9.10;6.40;;;7.00;99.90;;;7.95;100.00;-19997.59;5093055;28;20207;-61
2021/12/19 01:03:15;;;;;;;7.43;6.30;;;7.00;99.90;;;7.90;100.00;-19995.72;5093151;28;20218;-61
2021/12/19 01:05:44;;;;;;;8.50;6.13;;;6.90;99.90;;;7.89;100.00;-19995.34;5093078;28;20199;-61
2021/12/19 01:08:13;;;;;;;10.03;6.63;;;6.90;99.90;;;7.89;100.00;-19995.34;5093022;28;20647;-62
2021/12/19 01:10:44;;;;;;;10.67;6.90;;;6.90;99.90;;;7.96;100.00;-19997.94;5092565;28;20604;-61
2021/12/19 01:13:14;;;;;;;10.30;6.77;;;7.00;99.90;;;7.86;100.00;-19994.34;5089075;28;20215;-61
2021/12/19 01:15:43;;;;;;;9.97;6.43;;;6.90;99.90;;;7.72;100.00;-19989.56;5072888;28;20219;-62
2021/12/19 01:18:11;;;;;;;8.33;6.77;;;6.90;99.90;;;7.76;100.00;-19990.91;5072785;28;20201;-62
2021/12/19 01:20:42;;;;;;;11.53;7.20;;;6.90;99.90;;;7.64;100.00;-19987.00;5072674;28;20197;-61
2021/12/19 01:23:12;;;;;;;9.37;6.77;;;6.80;99.90;;;7.96;100.00;-19997.94;5072411;28;20185;-63
2021/12/19 01:25:42;;;;;;;9.10;6.00;;;6.90;99.90;;;7.93;100.00;-19996.91;5072569;28;20251;-63
2021/12/19 01:28:10;;;;;;;8.60;6.40;;;6.90;99.90;;;7.82;100.00;-19992.97;5072511;28;20236;-60
2021/12/19 01:30:38;;;;;;;10.43;7.07;;;6.90;99.90;;;7.95;100.00;-19997.41;5072422;28;20207;-62
2021/12/19 01:33:07;;;;;;;11.50;6.53;;;7.00;99.90;;;7.73;100.00;-19989.91;5072177;28;20239;-63
2021/12/19 01:35:35;;;;;;;7.37;5.97;;;6.90;99.90;;;7.97;100.00;-19998.25;5074542;28;20208;-62
2021/12/19 01:38:05;;;;;;;8.80;6.00;;;7.00;99.90;;;7.86;100.00;-19994.50;5092851;28;20202;-62
2021/12/19 01:40:33;;;;;;;8.40;6.60;;;7.00;99.90;;;7.81;100.00;-19992.81;5092354;28;20290;-62
2021/12/19 01:43:01;;;;;;;8.90;5.57;;;7.00;99.90;;;7.91;100.00;-19996.03;5092323;28;20702;-61
2021/12/19 01:45:35;;;;;;;8.07;5.67;;;7.00;99.90;;;7.89;100.00;-19995.53;5092471;28;20291;-62
2021/12/19 01:48:07;;;;;;;8.60;5.43;;;7.00;99.90;;;7.86;100.00;-19994.34;5092708;28;20181;-62
2021/12/19 01:50:36;;;;;;;7.57;5.60;;;7.00;99.90;;;7.97;100.00;-19998.09;5092440;28;20192;-61
2021/12/19 01:53:11;;;;;;;8.90;5.23;;;7.00;99.90;;;7.93;100.00;-19996.72;5092406;28;20216;-61
2021/12/19 01:55:40;;;;;;;7.93;5.27;;;7.10;99.90;;;7.81;100.00;-19992.63;5092210;28;20197;-61
2021/12/19 01:58:09;;;;;;;6.63;4.90;;;7.00;99.90;;;7.85;100.00;-19994.00;5092064;28;20291;-61
2021/12/19 02:00:40;;;;;;;9.17;4.77;;;7.10;99.90;;;7.94;100.00;-19997.06;5091822;28;20582;-61
2021/12/19 02:03:11;;;;;;;8.17;4.93;;;7.00;99.90;;;7.82;100.00;-19993.13;5092323;28;20186;-61
2021/12/19 02:05:39;;;;;;;6.53;4.63;;;7.00;99.90;;;7.66;100.00;-19987.66;5091848;28;20199;-61
2021/12/19 02:08:10;;;;;;;6.37;4.87;;;7.00;99.90;;;7.64;100.00;-19987.00;5092367;28;20290;-63
2021/12/19 02:10:41;;;;;;;9.17;5.20;;;7.00;99.90;;;7.64;100.00;-19986.81;5078418;28;20189;-61
2021/12/19 02:13:12;;;;;;;9.57;5.47;;;7.00;99.90;;;7.90;100.00;-19995.88;5071917;28;20204;-62
2021/12/19 02:15:43;;;;;;;8.07;5.17;;;6.90;99.90;;;7.87;100.00;-19994.69;5071884;28;20212;-62
2021/12/19 02:18:17;;;;;;;7.10;4.60;;;7.00;99.90;;;7.75;100.00;-19990.56;5072111;28;20189;-62
2021/12/19 02:20:52;;;;;;;7.70;4.90;;;7.00;99.90;;;7.88;100.00;-19995.19;5071751;28;20398;-62
2021/12/19 02:23:24;;;;;;;6.87;5.27;;;7.00;99.90;;;7.95;100.00;-19997.59;5072233;28;20176;-61
2021/12/19 02:25:54;;;;;;;8.03;5.33;;;7.00;99.90;;;7.90;100.00;-19995.88;5072013;28;20230;-61
2021/12/19 02:28:23;;;;;;;7.90;5.93;;;7.00;99.90;;;7.82;100.00;-19993.13;5072030;28;20181;-61
2021/12/19 02:30:53;;;;;;;8.77;6.20;;;7.00;99.90;;;7.67;100.00;-19987.84;5071069;28;20659;-62
2021/12/19 02:33:24;;;;;;;8.77;6.40;;;6.90;99.90;;;7.94;100.00;-19997.25;5086550;28;20259;-62
2021/12/19 02:36:03;;;;;;;10.27;6.60;;;6.90;99.90;;;7.82;100.00;-19993.13;5092033;28;20208;-61
2021/12/19 02:39:17;;;;;;;9.43;6.70;;;6.90;99.90;;;8.03;100.00;-20000.16;5092317;28;20226;-62
2021/12/19 02:49:43;;;;;;;8.53;6.87;;;6.80;99.90;;;7.67;100.00;-19987.84;5095918;28;20304;-61
2021/12/19 02:52:16;;;;;;;9.47;7.27;;;6.90;99.90;;;7.81;100.00;-19992.81;5095704;28;20290;-61
2021/12/19 02:54:45;;;;;;;7.03;5.97;;;6.80;99.90;;;7.74;100.00;-19990.22;5095865;28;20295;-61
2021/12/19 02:57:13;;;;;;;9.47;6.47;;;6.90;99.90;;;7.68;100.00;-19988.19;5095675;28;20223;-61
2021/12/19 02:59:41;;;;;;;10.17;6.33;;;6.80;99.90;;;7.54;100.00;-19983.56;5096028;28;20291;-62
2021/12/19 03:02:09;;;;;;;8.90;6.47;;;6.80;99.90;;;7.56;100.00;-19984.25;5095221;28;20572;-60
2021/12/19 03:04:37;;;;;;;7.57;5.87;;;6.80;99.90;;;7.50;100.00;-19982.19;5095542;28;20218;-61
2021/12/19 03:07:06;;;;;;;8.47;6.07;;;6.70;99.90;;;7.50;100.00;-19982.03;5095249;28;20666;-62
2021/12/19 03:09:54;;;;;;;8.10;5.77;;;6.70;99.90;;;7.71;100.00;-19989.22;5095675;28;20214;-62
2021/12/19 03:12:33;;;;;;;7.30;5.90;;;6.80;99.90;;;7.64;100.00;-19987.00;5095314;28;20181;-62
2021/12/19 03:17:59;;;;;;;7.90;6.03;;;6.80;99.90;;;7.90;100.00;-19995.88;5036134;28;20198;-61
2021/12/19 03:20:28;;;;;;;6.97;5.27;;;6.90;99.90;;;7.73;100.00;-19989.91;5074873;28;20189;-61
2021/12/19 03:22:58;;;;;;;9.17;5.73;;;6.80;99.90;;;7.65;100.00;-19987.16;5075010;28;20199;-62
2021/12/19 03:25:30;;;;;;;6.70;5.13;;;6.80;99.90;;;7.61;100.00;-19985.78;5074953;28;20224;-62
2021/12/19 03:28:01;;;;;;;10.53;5.70;;;6.80;99.90;;;7.49;100.00;-19981.69;5074974;28;20185;-61
2021/12/19 03:30:30;;;;;;;9.70;5.10;;;6.70;99.90;;;7.76;100.00;-19990.91;5074829;28;20189;-61
2021/12/19 03:32:58;;;;;;;7.73;5.13;;;6.80;99.90;;;7.82;100.00;-19993.13;5074594;28;20232;-62
2021/12/19 03:35:29;;;;;;;7.93;5.07;;;6.70;99.90;;;7.63;100.00;-19986.47;5074571;28;20227;-61
2021/12/19 03:37:59;;;;;;;8.90;5.00;;;6.80;99.90;;;7.63;100.00;-19986.66;5074457;28;20215;-72
2021/12/19 03:40:36;;;;;;;6.40;5.00;;;6.70;99.90;;;7.41;100.00;-19979.31;5074977;28;20235;-71
2021/12/19 03:43:07;;;;;;;8.23;5.07;;;6.70;99.90;;;7.56;100.00;-19984.09;5074728;28;20569;-71
2021/12/19 03:45:37;;;;;;;10.23;4.43;;;6.70;99.90;;;7.66;100.00;-19987.50;5074757;28;20181;-71
2021/12/19 03:48:11;;;;;;;6.13;4.77;;;6.70;99.90;;;7.49;100.00;-19981.69;5074603;28;20216;-71
2021/12/19 03:50:43;;;;;;;10.27;4.90;;;6.70;99.90;;;7.38;100.00;-19978.28;5074321;28;20291;-71
2021/12/19 03:53:12;;;;;;;7.77;4.43;;;6.60;99.90;;;7.63;100.00;-19986.66;5074064;28;20211;-72
2021/12/19 03:55:42;;;;;;;6.93;4.50;;;6.60;99.90;;;7.43;100.00;-19979.97;5074404;28;20193;-71
2021/12/19 03:58:10;;;;;;;6.30;4.60;;;6.60;99.90;;;7.28;100.00;-19974.84;5073994;28;20560;-70
2021/12/19 04:00:42;;;;;;;6.93;4.47;;;6.60;99.90;;;7.55;100.00;-19983.75;5072803;28;20200;-70
2021/12/19 04:03:16;;;;;;;8.50;4.77;;;6.60;99.90;;;7.40;100.00;-19978.97;5074005;28;20662;-71
2021/12/19 04:05:46;;;;;;;6.87;5.00;;;6.60;99.90;;;7.51;100.00;-19982.38;5082196;28;20187;-71
2021/12/19 04:08:14;;;;;;;7.93;4.93;;;6.60;99.90;;;7.51;100.00;-19982.38;5094518;28;20207;-72
2021/12/19 04:10:46;;;;;;;7.10;4.73;;;6.50;99.90;;;7.46;100.00;-19980.84;5094804;28;20287;-70
2021/12/19 04:13:14;;;;;;;7.80;4.83;;;6.50;99.90;;;7.35;100.00;-19977.25;5094628;28;20208;-70
2021/12/19 04:15:42;;;;;;;7.03;5.47;;;6.50;99.90;;;7.37;100.00;-19977.94;5094776;28;20243;-72
2021/12/19 04:18:11;;;;;;;8.23;4.87;;;6.50;99.90;;;7.30;100.00;-19975.38;5094888;28;20199;-71
2021/12/19 04:20:39;;;;;;;8.00;5.57;;;6.40;99.90;;;7.17;100.00;-19970.94;5094109;28;20291;-71
2021/12/19 04:23:07;;;;;;;7.83;5.40;;;6.40;99.90;;;7.15;100.00;-19970.25;5094371;28;20287;-71
2021/12/19 04:25:35;;;;;;;7.73;5.57;;;6.40;99.90;;;7.39;100.00;-19978.44;5081616;28;20288;-71
2021/12/19 04:28:05;;;;;;;9.23;5.50;;;6.40;99.90;;;7.25;100.00;-19973.84;5073997;28;20205;-71
2021/12/19 04:30:33;;;;;;;7.30;4.87;;;6.40;99.90;;;7.36;100.00;-19977.59;5073932;28;20845;-72
2021/12/19 04:33:03;;;;;;;8.40;5.50;;;6.40;99.90;;;7.14;100.00;-19969.91;5073437;28;20688;-72
2021/12/19 04:35:36;;;;;;;8.23;5.17;;;6.40;99.90;;;7.24;100.00;-19973.50;5074270;28;20185;-71
2021/12/19 04:41:09;;;;;;;7.70;5.47;;;6.30;99.90;;;7.28;100.00;-19974.69;5075408;28;20272;-71
2021/12/19 04:52:15;;;;;;;7.40;5.17;;;6.30;99.90;;;7.20;100.00;-19971.94;5073472;28;20582;-71
2021/12/19 04:55:09;;;;;;;7.47;5.40;;;6.30;99.90;;;7.21;100.00;-19972.47;5073594;28;20254;-72
2021/12/19 04:57:44;;;;;;;7.63;5.83;;;6.30;99.90;;;7.21;100.00;-19972.47;5073623;28;20299;-72
2021/12/19 05:00:18;;;;;;;7.83;5.87;;;6.30;99.90;;;7.19;100.00;-19971.78;5073238;28;20271;-71
2021/12/19 05:02:51;;;;;;;9.23;5.60;;;6.30;99.90;;;7.09;100.00;-19968.19;5073712;28;20275;-72
2021/12/19 05:16:30;;;;;;;9.00;6.20;;;6.20;99.90;;;7.06;100.00;-19967.34;5072881;28;20204;-71
2021/12/19 05:19:05;;;;;;;6.87;5.47;;;6.20;99.90;;;7.20;100.00;-19971.94;5072763;28;20192;-70
2021/12/19 05:21:36;;;;;;;6.33;5.43;;;6.20;99.90;;;7.20;100.00;-19971.94;5083429;28;20195;-71
2021/12/19 05:24:20;;;;;;;10.13;5.60;;;6.30;99.90;;;7.19;100.00;-19971.78;5093117;28;20527;-72
2021/12/19 05:26:49;;;;;;;7.97;5.07;;;6.30;99.90;;;7.16;100.00;-19970.75;5093164;28;20194;-71
2021/12/19 05:29:17;;;;;;;7.47;6.20;;;6.30;99.90;;;7.32;100.00;-19976.22;5093134;28;20240;-71
2021/12/19 05:31:47;;;;;;;7.20;5.63;;;6.30;99.90;;;7.25;100.00;-19973.84;5092716;28;20382;-72
2021/12/19 05:34:15;;;;;;;7.70;5.70;;;6.30;99.90;;;7.21;100.00;-19972.28;5092334;28;20722;-72
2021/12/19 05:47:48;;;;;;;8.80;4.97;;;6.30;99.90;;;7.33;100.00;-19976.56;5092880;28;20211;-73
2021/12/19 05:50:19;;;;;;;6.90;5.00;;;6.30;99.90;;;7.34;100.00;-19976.72;5092374;28;20585;-72
2021/12/19 05:52:48;;;;;;;5.67;4.63;;;6.40;99.90;;;7.29;100.00;-19975.19;5093068;28;20180;-72
2021/12/19 05:55:17;;;;;;;7.50;5.20;;;6.40;99.90;;;7.29;100.00;-19975.19;5091951;28;20216;-72
2021/12/19 05:57:46;;;;;;;6.67;4.70;;;6.40;99.90;;;7.23;100.00;-19973.16;5092327;28;20199;-72
2021/12/19 06:00:18;;;;;;;6.57;4.67;;;6.40;99.90;;;7.44;100.00;-19980.31;5092507;28;20286;-72
2021/12/19 06:02:49;;;;;;;7.10;5.17;;;6.40;99.90;;;7.23;100.00;-19973.16;5092439;28;20188;-73
2021/12/19 06:05:18;;;;;;;6.80;5.00;;;6.40;99.90;;;7.15;100.00;-19970.41;5092176;28;20193;-73
2021/12/19 06:07:46;;;;;;;6.63;5.27;;;6.40;99.90;;;7.08;100.00;-19968.03;5092588;28;20620;-72
2021/12/19 06:10:14;;;;;;;7.93;5.63;;;6.30;99.90;;;7.21;100.00;-19972.28;5092185;28;20226;-72
2021/12/19 06:12:42;;;;;;;7.30;5.33;;;6.30;99.90;;;7.23;100.00;-19972.97;5092254;28;20203;-73
2021/12/19 06:15:11;;;;;;;6.53;5.20;;;6.30;99.90;;;7.20;100.00;-19972.13;5092109;28;20224;-72
2021/12/19 06:17:42;;;;;;;9.67;5.27;;;6.40;99.90;;;7.29;100.00;-19975.03;5082848;28;20660;-72
2021/12/19 06:20:12;;;;;;;7.50;5.00;;;6.40;99.90;;;7.10;100.00;-19968.69;5072027;28;20204;-71
2021/12/19 06:22:41;;;;;;;5.60;4.90;;;6.30;99.90;;;7.36;100.00;-19977.41;5073689;28;20280;-71
2021/12/19 06:25:10;;;;;;;7.07;5.00;;;6.40;99.90;;;7.37;100.00;-19977.94;5076587;28;20231;-71
2021/12/19 06:27:39;;;;;;;7.10;4.97;;;6.40;99.90;;;7.25;100.00;-19973.66;5076665;28;20280;-72
2021/12/19 06:30:09;;;;;;;8.30;5.47;;;6.40;99.90;;;7.28;100.00;-19974.84;5076054;28;20204;-71
2021/12/19 06:32:38;;;;;;;6.80;5.07;;;6.40;99.90;;;7.13;100.00;-19969.72;5075716;28;20272;-72
2021/12/19 06:35:12;;;;;;;6.33;5.17;;;6.30;99.90;;;7.28;100.00;-19974.69;5075420;28;20209;-71
2021/12/19 06:37:41;;;;;;;7.03;5.27;;;6.40;99.90;;;7.37;100.00;-19977.94;5076049;28;20279;-71
2021/12/19 06:40:13;;;;;;;6.20;5.23;;;6.40;99.90;;;7.30;100.00;-19975.38;5075705;28;20295;-72
2021/12/19 06:42:42;;;;;;;6.37;4.97;;;6.40;99.90;;;7.18;100.00;-19971.44;5075857;28;20723;-72
2021/12/19 06:45:11;;;;;;;6.73;5.20;;;6.30;99.90;;;7.07;100.00;-19967.69;5075637;28;20296;-71
2021/12/19 06:47:41;;;;;;;6.00;5.10;;;6.30;99.90;;;7.22;100.00;-19972.81;5075932;28;20283;-72
2021/12/19 06:50:12;;;;;;;5.83;5.23;;;6.30;99.90;;;7.11;100.00;-19968.88;5075501;28;20327;-72
2021/12/19 06:52:42;;;;;;;8.43;5.10;;;6.30;99.90;;;7.27;100.00;-19974.34;5075454;28;20705;-71
2021/12/19 06:55:13;;;;;;;6.87;5.03;;;6.30;99.90;;;7.30;100.00;-19975.53;5075358;28;20200;-72
2021/12/19 06:57:42;;;;;;;7.23;5.43;;;6.30;99.90;;;7.18;100.00;-19971.44;5075686;28;20297;-71
2021/12/19 07:00:15;;;;;;;7.00;5.67;;;6.30;99.90;;;7.34;100.00;-19976.91;5074993;28;20204;-71
2021/12/19 07:02:43;;;;;;;7.63;5.50;;;6.30;99.90;;;7.20;100.00;-19972.13;5075429;28;20286;-71
2021/12/19 07:05:11;;;;;;;6.37;5.00;;;6.30;99.90;;;7.04;100.00;-19966.66;5078623;28;20529;-72
2021/12/19 07:07:41;;;;;;;7.47;5.57;;;6.30;99.90;;;7.15;100.00;-19970.41;5095743;28;20206;-74
2021/12/19 07:10:10;;;;;;;6.17;5.20;;;6.30;99.90;;;7.42;100.00;-19979.47;5095730;28;20231;-72
2021/12/19 07:12:38;;;;;;;7.97;5.40;;;6.30;99.90;;;7.33;100.00;-19976.41;5095377;28;20283;-71
2021/12/19 07:15:09;;;;;;;7.93;4.87;;;6.40;99.90;;;7.23;100.00;-19973.16;5076138;28;20761;-73
2021/12/19 07:17:37;;;;;;;7.07;5.03;;;6.30;99.90;;;7.15;100.00;-19970.25;5075305;28;20271;-71
2021/12/19 07:20:08;;;;;;;8.00;5.23;;;6.30;99.90;;;7.31;100.00;-19975.88;5075257;28;20243;-71
2021/12/19 07:22:36;;;;;;;6.17;4.43;;;6.30;99.90;;;7.32;100.00;-19976.22;5075220;28;20291;-71
2021/12/19 07:25:06;;;;;;;6.07;4.90;;;6.40;99.90;;;7.21;100.00;-19972.47;5075068;28;20197;-71
2021/12/19 07:27:34;;;;;;;5.70;4.63;;;6.40;99.90;;;7.21;100.00;-19972.47;5074812;28;20616;-71
2021/12/19 07:30:02;;;;;;;7.33;5.27;;;6.40;99.90;;;7.30;100.00;-19975.53;5074483;28;20207;-71
2021/12/19 07:32:31;;;;;;;5.50;4.93;;;6.40;99.90;;;7.18;100.00;-19971.44;5074821;28;20204;-72
2021/12/19 07:35:19;;;;;;;6.87;4.83;;;6.40;99.90;;;7.43;100.00;-19979.97;5074250;28;20688;-72
2021/12/19 07:37:49;;;;;;;6.47;4.80;;;6.40;99.90;;;7.38;100.00;-19978.09;5074527;28;20296;-71
2021/12/19 07:40:20;;;;;;;7.70;5.10;;;6.50;99.90;;;7.37;100.00;-19977.94;5074679;28;20311;-71
2021/12/19 07:42:49;;;;;;;6.23;4.73;;;6.50;99.90;;;7.12;100.00;-19969.38;5074597;28;20258;-71
2021/12/19 07:45:18;;;;;;;6.07;4.90;;;6.50;99.90;;;7.29;100.00;-19975.19;5074307;28;20216;-71
2021/12/19 07:47:46;;;;;;;5.77;4.87;;;6.40;99.90;;;7.36;100.00;-19977.41;5074387;28;20207;-71
2021/12/19 07:50:16;;;;;;;6.57;5.20;;;6.50;99.90;;;7.35;100.00;-19977.25;5074139;28;20322;-71
2021/12/19 07:52:44;;;;;;;5.60;4.83;;;6.50;99.90;;;7.40;100.00;-19978.97;5074224;28;20251;-71
2021/12/19 07:55:12;;;;;;;5.70;4.70;;;6.50;99.90;;;7.40;100.00;-19978.78;5074205;28;20221;-72
2021/12/19 07:57:42;;;;;;;7.07;5.03;;;6.50;99.90;;;7.38;100.00;-19978.28;5074146;28;20682;-72
2021/12/19 08:00:13;;;;;;;5.90;4.57;;;6.50;99.90;;;7.27;100.00;-19974.50;5074259;28;20291;-71
2021/12/19 08:02:45;;;;;;;5.77;4.90;;;6.50;99.90;;;7.49;100.00;-19981.88;5074267;28;20187;-72
2021/12/19 08:05:15;;;;;;;5.77;4.40;;;6.50;99.90;;;7.54;100.00;-19983.56;5078278;28;21043;-70
2021/12/19 08:07:47;;;;;;;6.27;4.93;;;6.50;99.90;;;7.57;100.00;-19984.44;5094571;28;20569;-70
2021/12/19 08:13:01;;;;;;;8.73;6.07;;;6.50;99.90;;;7.59;100.00;-19985.28;5073166;28;20185;-71
2021/12/19 08:15:29;;;;;;;5.67;4.87;;;6.60;99.90;;;7.41;100.00;-19979.31;5073946;28;20717;-72
2021/12/19 08:17:57;;;;;;;5.50;4.67;;;6.50;99.90;;;7.40;100.00;-19978.78;5073855;28;20201;-71
2021/12/19 08:20:27;;;;;;;7.70;5.20;;;6.50;99.90;;;7.34;100.00;-19976.72;5074014;28;20304;-71
2021/12/19 08:22:55;;;;;;;6.80;4.80;;;6.50;99.90;;;7.25;100.00;-19973.84;5073721;28;20205;-71
2021/12/19 08:25:25;;;;;;;6.77;4.97;;;6.40;99.90;;;7.30;100.00;-19975.53;5074010;28;20284;-72
2021/12/19 08:27:54;;;;;;;7.27;5.90;;;6.40;99.90;;;7.15;100.00;-19970.41;5073674;28;20753;-72
2021/12/19 08:30:25;;;;;;;6.37;4.53;;;6.40;99.90;;;7.27;100.00;-19974.34;5073521;28;20584;-72
2021/12/19 08:32:55;;;;;;;5.33;4.60;;;6.40;99.90;;;7.18;100.00;-19971.44;5073200;28;20779;-72
2021/12/19 08:35:24;;;;;;;5.97;4.80;;;6.40;99.90;;;7.22;100.00;-19972.63;5073692;28;20228;-71
2021/12/19 08:37:52;;;;;;;5.63;4.70;;;6.40;99.90;;;7.18;100.00;-19971.44;5073561;28;20235;-73
2021/12/19 08:40:22;;;;;;;6.10;4.50;;;6.40;99.90;;;7.17;100.00;-19971.09;5073353;28;20307;-71
2021/12/19 08:42:53;;;;;;;8.20;4.90;;;6.40;99.90;;;7.36;100.00;-19977.59;5073374;28;20317;-71
2021/12/19 08:45:23;;;;;;;7.50;4.63;;;6.40;99.90;;;7.42;100.00;-19979.63;5072417;28;20280;-71
2021/12/19 08:47:51;;;;;;;5.70;4.30;;;6.50;99.90;;;7.48;100.00;-19981.53;5073241;28;20255;-71
2021/12/19 08:50:21;;;;;;;7.17;4.43;;;6.50;99.90;;;7.53;100.00;-19983.22;5073269;28;20262;-71
2021/12/19 08:52:51;;;;;;;6.03;4.00;;;6.60;99.90;;;7.47;100.00;-19981.19;5073285;28;20196;-70
2021/12/19 08:55:21;;;;;;;6.65;4.75;;;6.60;99.90;;;7.49;100.00;-19981.69;5073093;28;20246;-71
2021/12/19 08:57:49;;;;;;;6.50;4.40;;;6.60;99.90;;;7.71;100.00;-19989.22;5073067;28;20285;-71
2021/12/19 09:00:19;;;;;;;7.93;4.50;;;6.70;99.90;;;7.73;100.00;-19989.91;5072934;28;20207;-71
2021/12/19 09:02:54;;;;;;;6.00;4.27;;;6.70;99.90;;;7.52;100.00;-19982.88;5072686;28;20207;-71
2021/12/19 09:05:24;;;;;;;5.33;4.33;;;6.70;99.90;;;7.52;100.00;-19982.88;5077963;28;20192;-71
2021/12/19 09:07:52;;;;;;;7.47;4.77;;;6.70;99.90;;;7.52;100.00;-19982.72;5092941;28;20735;-72
2021/12/19 09:10:22;;;;;;;6.30;4.17;;;6.70;99.90;;;7.65;100.00;-19987.16;5092913;28;20202;-71
2021/12/19 09:12:50;;;;;;;6.30;4.50;;;6.70;99.90;;;7.61;100.00;-19985.97;5092768;28;20697;-71
2021/12/19 09:15:20;;;;;;;6.03;4.60;;;6.80;99.90;;;7.75;100.00;-19990.56;5092718;28;20203;-73
2021/12/19 09:17:49;;;;;;;5.97;4.00;;;6.80;99.90;;;7.80;100.00;-19992.47;5092811;28;20711;-70
2021/12/19 09:20:18;;;;;;;4.93;4.33;;;6.80;99.90;;;7.82;100.00;-19992.97;5092790;28;20718;-71
2021/12/19 09:22:46;;;;;;;5.93;4.20;;;6.80;99.90;;;7.73;100.00;-19989.91;5092845;28;20200;-72
2021/12/19 09:25:20;;;;;;;6.93;4.73;;;6.80;99.90;;;7.72;100.00;-19989.56;5093099;28;20188;-70
2021/12/19 09:27:49;;;;;;;5.57;4.47;;;6.80;99.90;;;7.76;100.00;-19991.09;5090993;28;20187;-71
2021/12/19 09:30:17;;;;;;;6.53;4.53;;;6.80;99.90;;;7.86;100.00;-19994.34;5072466;28;20645;-72
2021/12/19 09:32:46;;;;;;;6.37;4.77;;;6.90;99.90;;;7.94;100.00;-19997.25;5072154;28;20295;-72
2021/12/19 09:35:16;;;;;;;8.23;5.13;;;6.90;99.90;;;7.80;100.00;-19992.28;5072502;28;20548;-70
2021/12/19 09:37:44;;;;;;;6.20;4.43;;;6.90;99.90;;;7.92;100.00;-19996.56;5072656;28;20205;-70
2021/12/19 09:40:19;;;;;;;8.47;4.50;;;7.00;99.90;;;8.05;100.00;-20001.00;5072308;28;20279;-70
2021/12/19 09:42:50;;;;;;;6.10;4.67;;;7.00;99.90;;;7.90;100.00;-19995.88;5072519;28;20272;-71
2021/12/19 09:45:21;;;;;;;6.10;5.03;;;7.00;99.90;;;8.07;100.00;-20001.69;5072011;28;20609;-72
2021/12/19 09:47:49;;;;;;;7.10;5.10;;;7.00;99.90;;;7.92;100.00;-19996.38;5072505;28;20272;-71
2021/12/19 09:50:19;;;;;;;6.37;4.63;;;7.00;99.90;;;7.93;100.00;-19996.91;5072295;28;20232;-71
2021/12/19 09:52:49;;;;;;;6.30;4.70;;;7.00;99.90;;;7.86;100.00;-19994.34;5072321;28;20181;-71
2021/12/19 09:55:21;;;;;;;4.77;4.27;;;7.00;99.90;;;7.88;100.00;-19995.19;5072247;28;20243;-71
2021/12/19 09:57:51;;;;;;;7.17;4.37;;;7.00;99.90;;;8.02;100.00;-19999.81;5072334;28;20254;-71
2021/12/19 10:00:21;;;;;;;6.10;4.70;;;7.00;99.90;;;8.04;100.00;-20000.66;5072222;28;20275;-72
2021/12/19 10:02:51;;;;;;;6.30;5.17;;;7.00;99.90;;;8.15;100.00;-20004.25;5083086;28;20282;-71
2021/12/19 10:05:25;;;;;;;6.73;4.80;;;7.10;99.90;;;7.97;100.00;-19998.25;5091933;28;20224;-71
2021/12/19 10:07:55;;;;;;;6.53;4.63;;;7.10;99.90;;;8.02;100.00;-19999.97;5092353;28;20546;-71
2021/12/19 10:10:42;;;;;;;8.73;5.10;;;7.10;99.90;;;8.01;100.00;-19999.47;5092614;28;20286;-71
2021/12/19 10:13:11;;;;;;;8.00;5.43;;;7.10;99.90;;;7.94;100.00;-19997.25;5092235;28;20284;-70
2021/12/19 10:15:42;;;;;;;8.47;5.77;;;7.10;99.90;;;8.08;100.00;-20001.84;5092036;28;20204;-71
2021/12/19 10:18:13;;;;;;;7.07;5.57;;;7.10;99.90;;;8.12;100.00;-20003.38;5092339;28;20304;-71
2021/12/19 10:20:52;;;;;;;7.43;5.30;;;7.10;99.90;;;8.28;100.00;-20008.69;5092464;28;20271;-71
2021/12/19 10:23:24;;;;;;;9.43;5.27;;;7.20;99.90;;;8.17;100.00;-20004.94;5093568;28;20216;-64
2021/12/19 10:26:02;;;;;;;7.63;6.13;;;7.20;99.90;;;8.11;100.00;-20002.88;5076108;28;20623;-63
2021/12/19 10:28:31;;;;;;;6.87;5.80;;;7.20;99.90;;;8.33;100.00;-20010.56;5072273;28;20220;-62
2021/12/19 10:31:03;;;;;;;9.23;5.77;;;7.30;99.90;;;8.38;100.00;-20012.28;5071844;28;20235;-62
2021/12/19 10:33:34;;;;;;;7.23;5.87;;;7.30;99.90;;;8.38;100.00;-20012.09;5071602;28;20327;-62
2021/12/19 10:36:09;;;;;;;8.80;6.03;;;7.30;99.90;;;8.21;100.00;-20006.28;5071497;28;20328;-62
2021/12/19 10:38:42;;;;;;;7.60;5.27;;;7.30;99.90;;;8.23;100.00;-20007.16;5072173;28;20284;-60
2021/12/19 10:41:14;;;;;;;6.97;5.43;;;7.30;99.90;;;8.24;100.00;-20007.50;5071424;28;20196;-62
2021/12/19 10:43:56;;;;;;;11.00;4.90;;;7.30;99.90;;;8.45;100.00;-20014.50;5071842;28;20607;-61
2021/12/19 10:46:30;;;;;;;8.23;5.47;;;7.40;99.90;;;8.46;100.00;-20014.84;5071913;28;20188;-62
2021/12/19 10:48:58;;;;;;;8.30;5.50;;;7.40;99.90;;;8.54;100.00;-20017.59;5071764;28;20192;-62
2021/12/19 10:51:39;;;;;;;9.70;5.10;;;7.50;99.90;;;8.46;100.00;-20014.84;5071764;28;20186;-62
2021/12/19 10:54:08;;;;;;;7.67;5.63;;;7.50;99.90;;;8.44;100.00;-20014.16;5071646;28;20216;-61
2021/12/19 10:56:39;;;;;;;8.93;5.30;;;7.50;99.90;;;8.32;100.00;-20010.22;5071727;28;20208;-62
2021/12/19 10:59:10;;;;;;;8.10;4.80;;;7.50;99.90;;;8.32;100.00;-20010.22;5082561;28;20235;-62
2021/12/19 11:01:44;;;;;;;8.10;5.50;;;7.40;99.90;;;8.12;100.00;-20003.22;5091861;28;20279;-62
2021/12/19 11:04:14;;;;;;;6.83;4.87;;;7.40;99.90;;;8.24;100.00;-20007.31;5092128;28;20275;-61
2021/12/19 11:06:46;;;;;;;8.33;5.27;;;7.30;99.90;;;8.46;100.00;-20014.84;5091725;28;20220;-62
2021/12/19 11:09:18;;;;;;;7.13;4.60;;;7.40;99.90;;;8.45;100.00;-20014.69;5094062;28;20548;-63
2021/12/19 11:11:52;;;;;;;9.37;5.83;;;7.50;99.90;;;8.34;100.00;-20010.91;5095871;28;20382;-62
2021/12/19 11:14:27;;;;;;;8.77;5.30;;;7.40;99.90;;;8.37;100.00;-20011.94;5095428;28;20634;-62
2021/12/19 11:16:59;;;;;;;7.20;5.30;;;7.50;99.90;;;8.46;100.00;-20014.84;5095613;28;20565;-62
2021/12/19 11:19:28;;;;;;;6.57;4.67;;;7.50;99.90;;;8.50;100.00;-20016.22;5095660;28;20188;-63
2021/12/19 11:22:23;;;;;;;8.47;4.30;;;7.50;99.90;;;8.65;100.00;-20021.34;5077210;28;20210;-62
2021/12/19 11:24:54;;;;;;;6.97;4.60;;;7.60;99.90;;;8.65;100.00;-20021.34;5074896;28;20188;-63
2021/12/19 11:27:23;;;;;;;5.70;4.27;;;7.60;99.90;;;8.36;100.00;-20011.59;5075217;28;20191;-62
2021/12/19 11:29:53;;;;;;;6.40;3.90;;;7.60;99.90;;;8.50;100.00;-20016.38;5074705;28;20200;-62